createdAt,value
2023-03-20T00:00:26.350Z,13.77
2023-03-20T00:00:50.247Z,13.52
2023-03-20T00:01:14.668Z,13.73
2023-03-20T00:01:37.443Z,13.50
2023-03-20T00:02:00.520Z,13.38
2023-03-20T00:02:23.650Z,13.20
2023-03-20T00:02:46.431Z,13.68
2023-03-20T00:03:10.912Z,14.18
2023-03-20T00:03:33.727Z,13.73
2023-03-20T00:03:56.516Z,14.85
2023-03-20T00:04:19.226Z,15.07
2023-03-20T00:04:42.084Z,15.07
2023-03-20T00:05:15.766Z,15.10
2023-03-20T00:05:38.636Z,15.98
2023-03-20T00:06:01.375Z,16.27
2023-03-20T00:06:25.013Z,17.17
2023-03-20T00:06:47.697Z,17.13
2023-03-20T00:07:12.811Z,17.25
2023-03-20T00:07:36.189Z,17.27
2023-03-20T00:07:58.971Z,17.33
2023-03-20T00:08:21.861Z,17.05
2023-03-20T00:08:47.532Z,17.25
2023-03-20T00:09:12.255Z,16.42
2023-03-20T00:09:34.974Z,16.27
2023-03-20T00:09:58.254Z,16.75
2023-03-20T00:10:21.648Z,17.20
2023-03-20T00:10:45.749Z,17.45
2023-03-20T00:11:13.990Z,16.80
2023-03-20T00:11:48.280Z,17.50
2023-03-20T00:12:14.912Z,16.17
2023-03-20T00:12:37.613Z,15.68
2023-03-20T00:13:00.533Z,15.90
2023-03-20T00:13:26.572Z,16.27
2023-03-20T00:13:49.340Z,15.70
2023-03-20T00:14:14.424Z,16.05
2023-03-20T00:14:37.177Z,15.32
2023-03-20T00:15:01.030Z,15.50
2023-03-20T00:15:26.888Z,15.88
2023-03-20T00:15:49.597Z,17.17
2023-03-20T00:16:12.494Z,18.75
2023-03-20T00:16:36.722Z,18.75
2023-03-20T00:17:00.341Z,18.90
2023-03-20T00:17:23.055Z,19.55
2023-03-20T00:17:45.979Z,19.83
2023-03-20T00:18:14.895Z,19.75
2023-03-20T00:18:38.915Z,21.05
2023-03-20T00:19:02.294Z,20.45
2023-03-20T00:19:26.444Z,19.98
2023-03-20T00:19:49.192Z,20.52
2023-03-20T00:20:15.561Z,20.00
2023-03-20T00:20:38.299Z,19.27
2023-03-20T00:21:00.977Z,19.40
2023-03-20T00:21:23.692Z,19.85
2023-03-20T00:21:48.093Z,19.02
2023-03-20T00:22:10.817Z,19.30
2023-03-20T00:22:33.655Z,19.35
2023-03-20T00:22:56.481Z,19.67
2023-03-20T00:23:19.184Z,19.17
2023-03-20T00:23:42.590Z,20.48
2023-03-20T00:24:06.291Z,20.98
2023-03-20T00:24:29.037Z,21.20
2023-03-20T00:24:52.021Z,20.45
2023-03-20T00:25:16.402Z,20.13
2023-03-20T00:25:40.178Z,19.85
2023-03-20T00:26:02.916Z,20.60
2023-03-20T00:26:29.969Z,20.75
2023-03-20T00:26:52.779Z,20.08
2023-03-20T00:27:15.951Z,20.58
2023-03-20T00:27:38.685Z,21.05
2023-03-20T00:28:01.448Z,20.65
2023-03-20T00:28:36.403Z,21.13
2023-03-20T00:28:59.110Z,21.67
2023-03-20T00:29:23.313Z,21.80
2023-03-20T00:29:46.189Z,22.52
2023-03-20T00:30:20.329Z,23.48
2023-03-20T00:30:43.076Z,23.42
2023-03-20T00:31:07.168Z,24.25
2023-03-20T00:31:31.269Z,23.95
2023-03-20T00:31:54.690Z,24.38
2023-03-20T00:32:17.409Z,24.73
2023-03-20T00:32:40.252Z,24.92
2023-03-20T00:33:03.002Z,24.88
2023-03-20T00:33:27.237Z,25.08
2023-03-20T00:33:49.994Z,23.73
2023-03-20T00:34:14.325Z,24.23
2023-03-20T00:34:36.970Z,24.38
2023-03-20T00:34:59.690Z,24.17
2023-03-20T00:35:24.900Z,24.33
2023-03-20T00:35:47.922Z,24.73
2023-03-20T00:36:11.045Z,25.27
2023-03-20T00:36:33.856Z,24.08
2023-03-20T00:36:56.563Z,21.92
2023-03-20T00:37:19.303Z,20.90
2023-03-20T00:37:41.980Z,21.33
2023-03-20T00:38:04.651Z,21.33
2023-03-20T00:38:27.375Z,21.40
2023-03-20T00:38:50.103Z,21.42
2023-03-20T00:39:13.105Z,21.17
2023-03-20T00:39:36.511Z,21.23
2023-03-20T00:39:59.219Z,20.83
2023-03-20T00:40:21.938Z,20.80
2023-03-20T00:40:44.738Z,20.90
2023-03-20T00:41:15.432Z,21.35
2023-03-20T00:41:42.819Z,20.85
2023-03-20T00:42:09.303Z,20.75
2023-03-20T00:42:31.986Z,21.25
2023-03-20T00:42:59.393Z,20.73
2023-03-20T00:43:22.205Z,21.63
2023-03-20T00:43:44.845Z,21.35
2023-03-20T00:44:14.725Z,20.88
2023-03-20T00:44:40.740Z,21.40
2023-03-20T00:45:07.066Z,21.30
2023-03-20T00:45:29.931Z,21.25
2023-03-20T00:45:52.628Z,20.70
2023-03-20T00:46:15.388Z,20.98
2023-03-20T00:46:38.652Z,20.35
2023-03-20T00:47:03.145Z,20.80
2023-03-20T00:47:27.278Z,20.58
2023-03-20T00:47:51.604Z,19.67
2023-03-20T00:48:15.871Z,19.52
2023-03-20T00:48:40.410Z,19.70
2023-03-20T00:49:03.868Z,19.88
2023-03-20T00:49:28.185Z,20.50
2023-03-20T00:49:51.664Z,19.90
2023-03-20T00:50:20.985Z,20.08
2023-03-20T00:50:43.740Z,19.73
2023-03-20T00:51:07.114Z,19.50
2023-03-20T00:51:29.856Z,20.15
2023-03-20T00:51:52.571Z,19.75
2023-03-20T00:52:15.280Z,19.15
2023-03-20T00:52:38.004Z,19.55
2023-03-20T00:53:00.723Z,19.85
2023-03-20T00:53:23.690Z,19.45
2023-03-20T00:53:46.423Z,19.42
2023-03-20T00:54:12.487Z,19.77
2023-03-20T00:54:35.296Z,19.52
2023-03-20T00:54:58.040Z,20.33
2023-03-20T00:55:21.935Z,19.98
2023-03-20T00:55:44.812Z,20.05
2023-03-20T00:56:09.781Z,19.30
2023-03-20T00:56:34.118Z,18.63
2023-03-20T00:56:59.925Z,20.65
2023-03-20T00:57:24.344Z,20.15
2023-03-20T00:57:48.989Z,20.30
2023-03-20T00:58:14.615Z,20.25
2023-03-20T00:58:37.374Z,19.35
2023-03-20T00:59:00.730Z,19.45
2023-03-20T00:59:25.139Z,19.33
2023-03-20T00:59:51.454Z,19.73
2023-03-20T01:00:22.204Z,20.15
2023-03-20T01:00:45.492Z,19.48
2023-03-20T01:01:08.363Z,18.90
2023-03-20T01:01:32.381Z,19.20
2023-03-20T01:01:55.115Z,19.83
2023-03-20T01:02:17.909Z,19.50
2023-03-20T01:02:41.159Z,19.85
2023-03-20T01:03:10.264Z,19.80
2023-03-20T01:03:32.991Z,19.85
2023-03-20T01:03:55.731Z,19.58
2023-03-20T01:04:19.870Z,19.80
2023-03-20T01:04:42.665Z,19.77
2023-03-20T01:05:08.556Z,19.42
2023-03-20T01:05:31.302Z,20.33
2023-03-20T01:05:54.026Z,19.67
2023-03-20T01:06:16.710Z,20.10
2023-03-20T01:06:39.546Z,19.73
2023-03-20T01:07:02.274Z,20.27
2023-03-20T01:07:24.979Z,19.92
2023-03-20T01:07:47.776Z,19.25
2023-03-20T01:08:14.897Z,19.63
2023-03-20T01:08:37.930Z,17.17
2023-03-20T01:09:00.679Z,17.02
2023-03-20T01:09:23.452Z,17.02
2023-03-20T01:09:47.399Z,17.35
2023-03-20T01:10:11.794Z,15.90
2023-03-20T01:10:34.471Z,14.80
2023-03-20T01:10:57.925Z,14.43
2023-03-20T01:11:22.948Z,14.10
2023-03-20T01:11:46.150Z,14.13
2023-03-20T01:12:10.764Z,13.27
2023-03-20T01:12:33.448Z,13.68
2023-03-20T01:12:56.809Z,14.02
2023-03-20T01:13:21.787Z,14.00
2023-03-20T01:13:44.498Z,14.20
2023-03-20T01:14:08.263Z,14.63
2023-03-20T01:14:31.268Z,14.20
2023-03-20T01:14:57.698Z,13.52
2023-03-20T01:15:22.353Z,13.85
2023-03-20T01:15:45.145Z,15.63
2023-03-20T01:16:18.302Z,14.98
2023-03-20T01:16:41.209Z,13.93
2023-03-20T01:17:03.988Z,14.27
2023-03-20T01:17:28.224Z,14.63
2023-03-20T01:17:51.042Z,14.38
2023-03-20T01:18:14.623Z,13.57
2023-03-20T01:18:37.343Z,13.77
2023-03-20T01:19:00.642Z,13.90
2023-03-20T01:19:23.437Z,15.07
2023-03-20T01:19:46.259Z,15.70
2023-03-20T01:20:14.103Z,14.77
2023-03-20T01:20:37.287Z,13.60
2023-03-20T01:21:00.010Z,15.93
2023-03-20T01:21:22.770Z,16.67
2023-03-20T01:21:45.512Z,16.02
2023-03-20T01:22:08.824Z,16.40
2023-03-20T01:22:31.539Z,16.13
2023-03-20T01:22:54.900Z,16.35
2023-03-20T01:23:17.699Z,17.15
2023-03-20T01:23:40.387Z,16.73
2023-03-20T01:24:03.082Z,16.00
2023-03-20T01:24:25.798Z,16.05
2023-03-20T01:24:48.577Z,14.73
2023-03-20T01:25:11.863Z,14.35
2023-03-20T01:25:35.003Z,13.63
2023-03-20T01:25:59.228Z,14.48
2023-03-20T01:26:27.333Z,13.93
2023-03-20T01:26:51.833Z,13.48
2023-03-20T01:27:17.817Z,13.60
2023-03-20T01:27:40.602Z,14.18
2023-03-20T01:28:03.366Z,14.88
2023-03-20T01:28:26.055Z,14.73
2023-03-20T01:28:49.035Z,14.95
2023-03-20T01:29:18.911Z,14.55
2023-03-20T01:29:42.917Z,12.98
2023-03-20T01:30:14.912Z,14.85
2023-03-20T01:30:37.635Z,16.23
2023-03-20T01:31:00.414Z,16.70
2023-03-20T01:31:23.227Z,15.68
2023-03-20T01:31:46.821Z,16.20
2023-03-20T01:32:11.136Z,17.08
2023-03-20T01:32:34.440Z,16.98
2023-03-20T01:32:57.298Z,17.42
2023-03-20T01:33:21.406Z,17.27
2023-03-20T01:33:44.168Z,17.65
2023-03-20T01:34:06.942Z,17.67
2023-03-20T01:34:29.675Z,17.63
2023-03-20T01:34:53.360Z,18.17
2023-03-20T01:35:17.134Z,17.98
2023-03-20T01:35:39.899Z,17.45
2023-03-20T01:36:03.425Z,17.63
2023-03-20T01:36:26.338Z,17.17
2023-03-20T01:36:50.697Z,16.65
2023-03-20T01:37:15.701Z,17.70
2023-03-20T01:37:38.376Z,17.38
2023-03-20T01:38:01.485Z,18.05
2023-03-20T01:38:24.976Z,17.35
2023-03-20T01:38:48.202Z,16.75
2023-03-20T01:39:10.948Z,14.30
2023-03-20T01:39:35.181Z,14.73
2023-03-20T01:39:58.136Z,16.80
2023-03-20T01:40:32.492Z,16.83
2023-03-20T01:40:57.232Z,17.08
2023-03-20T01:41:24.149Z,17.05
2023-03-20T01:41:47.381Z,16.90
2023-03-20T01:42:12.290Z,15.80
2023-03-20T01:42:36.464Z,17.08
2023-03-20T01:42:59.342Z,17.42
2023-03-20T01:43:22.748Z,17.20
2023-03-20T01:43:45.696Z,14.32
2023-03-20T01:44:20.236Z,14.55
2023-03-20T01:44:42.996Z,13.75
2023-03-20T01:45:14.842Z,14.68
2023-03-20T01:45:37.655Z,13.80
2023-03-20T01:46:03.017Z,13.85
2023-03-20T01:46:26.839Z,13.77
2023-03-20T01:46:51.049Z,14.85
2023-03-20T01:47:16.901Z,16.02
2023-03-20T01:47:41.309Z,13.93
2023-03-20T01:48:13.927Z,13.43
2023-03-20T01:48:52.327Z,16.52
2023-03-20T01:49:51.780Z,15.13
2023-03-20T01:50:26.944Z,14.18
2023-03-20T01:50:49.772Z,15.95
2023-03-20T01:51:12.514Z,15.52
2023-03-20T01:51:36.497Z,15.65
2023-03-20T01:51:59.249Z,13.10
2023-03-20T01:52:21.933Z,13.90
2023-03-20T01:52:44.679Z,17.15
2023-03-20T01:53:10.813Z,17.05
2023-03-20T01:53:33.593Z,16.42
2023-03-20T01:53:58.977Z,15.73
2023-03-20T01:54:23.158Z,16.40
2023-03-20T01:54:45.929Z,15.63
2023-03-20T01:55:08.977Z,15.27
2023-03-20T01:55:31.690Z,14.65
2023-03-20T01:55:56.278Z,14.13
2023-03-20T01:56:20.547Z,14.05
2023-03-20T01:56:46.623Z,13.82
2023-03-20T01:57:10.902Z,14.85
2023-03-20T01:57:35.885Z,15.02
2023-03-20T01:57:59.349Z,14.68
2023-03-20T01:58:24.756Z,15.77
2023-03-20T01:58:49.156Z,15.80
2023-03-20T01:59:14.590Z,16.58
2023-03-20T01:59:38.102Z,15.68
2023-03-20T02:00:03.288Z,15.93
2023-03-20T02:00:26.329Z,15.65
2023-03-20T02:00:49.962Z,16.08
2023-03-20T02:01:14.106Z,17.33
2023-03-20T02:01:37.359Z,17.13
2023-03-20T02:02:00.541Z,17.25
2023-03-20T02:02:25.459Z,18.40
2023-03-20T02:02:48.468Z,18.08
2023-03-20T02:03:11.557Z,18.00
2023-03-20T02:03:34.580Z,18.48
2023-03-20T02:03:57.659Z,18.90
2023-03-20T02:04:20.726Z,17.77
2023-03-20T02:04:45.075Z,18.33
2023-03-20T02:05:08.870Z,17.55
2023-03-20T02:05:31.704Z,17.60
2023-03-20T02:05:55.414Z,17.52
2023-03-20T02:06:18.256Z,18.67
2023-03-20T02:06:42.098Z,18.45
2023-03-20T02:07:05.462Z,18.17
2023-03-20T02:07:28.179Z,19.00
2023-03-20T02:07:56.010Z,18.77
2023-03-20T02:08:23.110Z,17.70
2023-03-20T02:08:50.909Z,17.40
2023-03-20T02:09:13.696Z,17.30
2023-03-20T02:09:36.460Z,17.75
2023-03-20T02:09:59.358Z,18.48
2023-03-20T02:10:22.162Z,18.77
2023-03-20T02:10:45.845Z,18.58
2023-03-20T02:11:08.528Z,17.25
2023-03-20T02:11:31.234Z,17.10
2023-03-20T02:11:54.470Z,18.02
2023-03-20T02:12:17.196Z,18.30
2023-03-20T02:12:41.783Z,18.10
2023-03-20T02:13:04.494Z,17.95
2023-03-20T02:13:27.604Z,17.75
2023-03-20T02:13:50.892Z,17.88
2023-03-20T02:14:14.119Z,17.70
2023-03-20T02:14:36.863Z,18.13
2023-03-20T02:14:59.618Z,17.95
2023-03-20T02:15:22.332Z,18.30
2023-03-20T02:15:56.812Z,18.45
2023-03-20T02:16:20.456Z,18.63
2023-03-20T02:16:46.032Z,19.05
2023-03-20T02:17:09.719Z,18.85
2023-03-20T02:17:32.459Z,19.00
2023-03-20T02:17:55.366Z,18.50
2023-03-20T02:18:18.086Z,18.38
2023-03-20T02:18:41.709Z,19.30
2023-03-20T02:19:04.510Z,19.80
2023-03-20T02:19:29.980Z,19.42
2023-03-20T02:19:58.799Z,18.77
2023-03-20T02:20:27.642Z,20.02
2023-03-20T02:21:00.879Z,19.13
2023-03-20T02:22:00.347Z,19.40
2023-03-20T02:22:39.557Z,20.17
2023-03-20T02:23:33.509Z,20.25
2023-03-20T02:24:22.932Z,20.80
2023-03-20T02:25:39.626Z,20.83
2023-03-20T02:26:22.582Z,21.92
2023-03-20T02:26:53.653Z,21.15
2023-03-20T02:27:20.009Z,20.92
2023-03-20T02:27:49.894Z,20.00
2023-03-20T02:28:29.162Z,20.27
2023-03-20T02:29:16.980Z,20.05
2023-03-20T02:30:21.149Z,19.85
2023-03-20T02:30:53.025Z,21.75
2023-03-20T02:31:39.177Z,21.15
2023-03-20T02:32:15.552Z,20.92
2023-03-20T02:32:57.982Z,21.23
2023-03-20T02:34:05.208Z,21.13
2023-03-20T02:34:56.820Z,20.92
2023-03-20T02:35:38.551Z,20.67
2023-03-20T02:36:15.827Z,21.88
2023-03-20T02:36:56.181Z,21.33
2023-03-20T02:37:46.142Z,20.55
2023-03-20T02:38:52.373Z,21.45
2023-03-20T02:39:39.365Z,20.98
2023-03-20T02:40:08.864Z,20.48
2023-03-20T02:40:34.761Z,21.15
2023-03-20T02:41:01.132Z,21.83
2023-03-20T02:41:25.577Z,21.08
2023-03-20T02:41:51.003Z,21.33
2023-03-20T02:42:17.797Z,20.67
2023-03-20T02:42:43.562Z,21.33
2023-03-20T02:43:11.228Z,20.70
2023-03-20T02:43:38.168Z,20.52
2023-03-20T02:44:04.201Z,21.25
2023-03-20T02:44:29.754Z,21.00
2023-03-20T02:44:56.749Z,20.90
2023-03-20T02:45:22.889Z,20.42
2023-03-20T02:45:49.850Z,21.40
2023-03-20T02:46:16.033Z,20.50
2023-03-20T02:46:44.187Z,20.60
2023-03-20T02:47:09.125Z,20.83
2023-03-20T02:47:36.169Z,19.52
2023-03-20T02:48:04.651Z,19.00
2023-03-20T02:48:36.964Z,19.77
2023-03-20T02:49:01.571Z,20.23
2023-03-20T02:49:32.218Z,19.80
2023-03-20T02:49:58.201Z,20.83
2023-03-20T02:50:25.093Z,19.60
2023-03-20T02:50:49.406Z,20.73
2023-03-20T02:51:15.790Z,20.17
2023-03-20T02:51:40.302Z,19.90
2023-03-20T02:52:04.812Z,19.77
2023-03-20T02:52:33.914Z,20.42
2023-03-20T02:53:00.578Z,19.60
2023-03-20T02:53:30.247Z,18.67
2023-03-20T02:53:54.757Z,18.95
2023-03-20T02:54:21.758Z,19.15
2023-03-20T02:54:47.372Z,19.83
2023-03-20T02:55:16.241Z,18.98
2023-03-20T02:55:44.201Z,19.40
2023-03-20T02:56:11.686Z,19.42
2023-03-20T02:56:36.497Z,18.98
2023-03-20T02:57:02.017Z,20.30
2023-03-20T02:57:30.847Z,20.17
2023-03-20T02:57:58.423Z,19.63
2023-03-20T02:58:23.047Z,19.40
2023-03-20T02:58:51.097Z,19.02
2023-03-20T02:59:20.002Z,19.48
2023-03-20T02:59:44.633Z,19.88
2023-03-20T03:00:10.312Z,19.58
2023-03-20T03:00:37.529Z,19.05
2023-03-20T03:01:02.627Z,18.95
2023-03-20T03:01:28.469Z,19.30
2023-03-20T03:01:53.439Z,19.23
2023-03-20T03:02:17.184Z,19.55
2023-03-20T03:02:40.450Z,19.27
2023-03-20T03:03:07.045Z,19.63
2023-03-20T03:03:32.304Z,19.13
2023-03-20T03:03:56.640Z,20.33
2023-03-20T03:04:21.291Z,19.60
2023-03-20T03:04:46.276Z,19.40
2023-03-20T03:05:12.666Z,19.90
2023-03-20T03:05:38.262Z,19.50
2023-03-20T03:06:03.376Z,19.45
2023-03-20T03:06:27.689Z,19.27
2023-03-20T03:06:52.029Z,19.20
2023-03-20T03:07:14.717Z,19.42
2023-03-20T03:07:38.862Z,19.70
2023-03-20T03:08:01.619Z,19.30
2023-03-20T03:08:26.418Z,19.70
2023-03-20T03:08:50.755Z,19.75
2023-03-20T03:09:17.729Z,19.73
2023-03-20T03:09:43.034Z,19.17
2023-03-20T03:10:08.501Z,19.50
2023-03-20T03:10:32.331Z,19.65
2023-03-20T03:10:58.282Z,19.50
2023-03-20T03:11:21.168Z,19.67
2023-03-20T03:11:46.112Z,19.77
2023-03-20T03:12:12.131Z,19.58
2023-03-20T03:12:37.935Z,19.67
2023-03-20T03:13:00.688Z,19.80
2023-03-20T03:13:27.209Z,20.08
2023-03-20T03:13:53.132Z,20.02
2023-03-20T03:14:20.671Z,20.95
2023-03-20T03:14:45.524Z,21.63
2023-03-20T03:15:11.207Z,21.30
2023-03-20T03:15:36.475Z,21.40
2023-03-20T03:16:03.429Z,22.10
2023-03-20T03:16:29.337Z,21.83
2023-03-20T03:16:52.195Z,21.45
2023-03-20T03:17:16.805Z,21.83
2023-03-20T03:17:39.519Z,21.08
2023-03-20T03:18:05.580Z,21.27
2023-03-20T03:18:28.403Z,20.27
2023-03-20T03:18:51.375Z,20.40
2023-03-20T03:19:15.882Z,19.95
2023-03-20T03:19:39.891Z,20.70
2023-03-20T03:20:06.014Z,20.10
2023-03-20T03:20:29.831Z,20.58
2023-03-20T03:20:54.711Z,20.65
2023-03-20T03:21:17.586Z,21.23
2023-03-20T03:21:40.412Z,20.20
2023-03-20T03:22:03.323Z,19.58
2023-03-20T03:22:26.101Z,19.27
2023-03-20T03:22:50.763Z,18.63
2023-03-20T03:23:18.882Z,19.40
2023-03-20T03:23:44.846Z,19.05
2023-03-20T03:24:07.753Z,19.25
2023-03-20T03:24:41.634Z,19.40
2023-03-20T03:25:05.470Z,19.23
2023-03-20T03:25:29.628Z,18.75
2023-03-20T03:25:52.330Z,19.42
2023-03-20T03:26:18.829Z,18.58
2023-03-20T03:26:42.419Z,18.52
2023-03-20T03:27:08.357Z,18.23
2023-03-20T03:27:34.520Z,18.90
2023-03-20T03:28:02.708Z,18.88
2023-03-20T03:28:28.489Z,19.02
2023-03-20T03:28:52.882Z,19.02
2023-03-20T03:29:17.209Z,19.33
2023-03-20T03:29:40.791Z,18.42
2023-03-20T03:30:05.854Z,18.50
2023-03-20T03:30:29.143Z,18.60
2023-03-20T03:30:53.696Z,18.75
2023-03-20T03:31:18.028Z,17.98
2023-03-20T03:31:40.703Z,18.38
2023-03-20T03:32:03.962Z,18.20
2023-03-20T03:32:29.451Z,17.52
2023-03-20T03:33:03.747Z,17.50
2023-03-20T03:33:28.344Z,18.25
2023-03-20T03:33:52.319Z,18.42
2023-03-20T03:34:18.019Z,17.77
2023-03-20T03:34:40.803Z,18.08
2023-03-20T03:35:05.614Z,17.73
2023-03-20T03:35:28.643Z,18.35
2023-03-20T03:35:51.579Z,17.77
2023-03-20T03:36:19.322Z,17.73
2023-03-20T03:36:45.875Z,18.13
2023-03-20T03:37:11.245Z,17.35
2023-03-20T03:37:41.365Z,17.70
2023-03-20T03:38:11.821Z,17.25
2023-03-20T03:38:38.577Z,17.88
2023-03-20T03:39:03.032Z,18.17
2023-03-20T03:39:27.695Z,16.45
2023-03-20T03:39:52.105Z,17.80
2023-03-20T03:40:21.211Z,17.70
2023-03-20T03:40:44.988Z,18.55
2023-03-20T03:41:22.546Z,18.25
2023-03-20T03:41:46.327Z,18.20
2023-03-20T03:42:11.863Z,18.08
2023-03-20T03:42:36.809Z,17.95
2023-03-20T03:43:02.064Z,17.63
2023-03-20T03:43:27.784Z,17.20
2023-03-20T03:43:54.272Z,17.08
2023-03-20T03:44:20.561Z,16.90
2023-03-20T03:44:46.631Z,17.10
2023-03-20T03:45:10.787Z,17.70
2023-03-20T03:45:36.459Z,17.67
2023-03-20T03:46:01.005Z,17.52
2023-03-20T03:46:26.872Z,17.13
2023-03-20T03:46:51.951Z,17.05
2023-03-20T03:47:16.561Z,16.88
2023-03-20T03:47:40.928Z,17.17
2023-03-20T03:48:06.995Z,16.85
2023-03-20T03:48:31.642Z,17.65
2023-03-20T03:48:56.517Z,17.75
2023-03-20T03:49:22.279Z,17.67
2023-03-20T03:49:47.688Z,16.67
2023-03-20T03:50:13.437Z,17.10
2023-03-20T03:50:40.073Z,16.38
2023-03-20T03:51:03.628Z,16.77
2023-03-20T03:51:28.642Z,16.48
2023-03-20T03:51:53.292Z,16.42
2023-03-20T03:52:17.280Z,16.73
2023-03-20T03:52:39.986Z,16.77
2023-03-20T03:53:06.048Z,16.88
2023-03-20T03:53:31.379Z,16.00
2023-03-20T03:53:56.171Z,15.95
2023-03-20T03:54:20.397Z,16.60
2023-03-20T03:54:44.885Z,15.97
2023-03-20T03:55:09.158Z,16.30
2023-03-20T03:55:35.312Z,16.27
2023-03-20T03:56:00.439Z,15.93
2023-03-20T03:56:24.764Z,16.23
2023-03-20T03:56:47.952Z,17.08
2023-03-20T03:57:11.236Z,15.52
2023-03-20T03:57:36.668Z,15.85
2023-03-20T03:58:01.466Z,16.00
2023-03-20T03:58:26.288Z,16.05
2023-03-20T03:58:49.950Z,15.80
2023-03-20T03:59:16.104Z,15.80
2023-03-20T03:59:40.567Z,15.60
2023-03-20T04:00:04.852Z,15.75
2023-03-20T04:00:27.584Z,15.52
2023-03-20T04:00:52.351Z,15.45
2023-03-20T04:01:15.633Z,15.60
2023-03-20T04:01:38.449Z,16.00
2023-03-20T04:02:01.843Z,15.60
2023-03-20T04:02:24.538Z,15.27
2023-03-20T04:02:48.338Z,15.57
2023-03-20T04:03:11.225Z,15.43
2023-03-20T04:03:35.567Z,15.35
2023-03-20T04:04:01.137Z,14.98
2023-03-20T04:04:23.908Z,15.90
2023-03-20T04:04:48.307Z,16.13
2023-03-20T04:05:11.844Z,16.67
2023-03-20T04:05:35.436Z,16.08
2023-03-20T04:05:58.639Z,16.20
2023-03-20T04:06:21.329Z,16.10
2023-03-20T04:06:44.183Z,15.63
2023-03-20T04:07:06.912Z,15.13
2023-03-20T04:07:29.541Z,15.32
2023-03-20T04:07:54.905Z,15.55
2023-03-20T04:08:19.152Z,15.45
2023-03-20T04:08:42.099Z,16.35
2023-03-20T04:09:04.939Z,16.80
2023-03-20T04:09:27.584Z,16.63
2023-03-20T04:09:50.598Z,16.02
2023-03-20T04:10:13.650Z,15.80
2023-03-20T04:10:36.374Z,16.73
2023-03-20T04:10:59.226Z,16.08
2023-03-20T04:11:24.359Z,16.40
2023-03-20T04:11:48.001Z,15.82
2023-03-20T04:12:27.712Z,15.90
2023-03-20T04:12:50.554Z,15.45
2023-03-20T04:13:16.402Z,16.00
2023-03-20T04:13:39.132Z,16.00
2023-03-20T04:14:02.435Z,16.27
2023-03-20T04:14:25.376Z,16.30
2023-03-20T04:14:48.031Z,16.45
2023-03-20T04:15:11.283Z,16.05
2023-03-20T04:15:34.180Z,15.70
2023-03-20T04:15:57.557Z,15.80
2023-03-20T04:16:22.018Z,15.90
2023-03-20T04:16:44.716Z,16.33
2023-03-20T04:17:07.526Z,16.58
2023-03-20T04:17:30.740Z,16.25
2023-03-20T04:17:53.447Z,15.38
2023-03-20T04:18:16.869Z,15.48
2023-03-20T04:18:39.661Z,15.77
2023-03-20T04:19:02.416Z,16.08
2023-03-20T04:19:25.223Z,16.33
2023-03-20T04:19:47.927Z,16.83
2023-03-20T04:20:11.474Z,16.27
2023-03-20T04:20:34.233Z,16.20
2023-03-20T04:20:57.088Z,17.10
2023-03-20T04:21:19.947Z,16.63
2023-03-20T04:21:42.813Z,16.55
2023-03-20T04:22:05.506Z,16.77
2023-03-20T04:22:28.517Z,16.55
2023-03-20T04:22:51.219Z,16.50
2023-03-20T04:23:13.939Z,15.75
2023-03-20T04:23:38.289Z,16.20
2023-03-20T04:24:01.049Z,16.00
2023-03-20T04:24:23.910Z,15.68
2023-03-20T04:24:46.951Z,16.17
2023-03-20T04:25:14.987Z,17.02
2023-03-20T04:25:38.050Z,16.10
2023-03-20T04:26:01.835Z,16.60
2023-03-20T04:26:24.580Z,16.33
2023-03-20T04:26:47.382Z,16.25
2023-03-20T04:27:10.179Z,15.73
2023-03-20T04:27:32.991Z,16.25
2023-03-20T04:27:55.895Z,16.17
2023-03-20T04:28:19.606Z,16.33
2023-03-20T04:28:42.362Z,16.08
2023-03-20T04:29:05.087Z,15.88
2023-03-20T04:29:28.001Z,16.10
2023-03-20T04:29:50.719Z,15.85
2023-03-20T04:30:13.789Z,15.50
2023-03-20T04:30:36.532Z,16.00
2023-03-20T04:31:00.554Z,15.88
2023-03-20T04:31:23.745Z,16.38
2023-03-20T04:31:47.175Z,16.25
2023-03-20T04:32:10.028Z,16.08
2023-03-20T04:32:32.871Z,15.85
2023-03-20T04:32:55.557Z,16.15
2023-03-20T04:33:18.420Z,16.10
2023-03-20T04:33:42.143Z,15.85
2023-03-20T04:34:04.932Z,15.70
2023-03-20T04:34:27.692Z,15.85
2023-03-20T04:34:50.416Z,15.85
2023-03-20T04:35:13.216Z,16.13
2023-03-20T04:35:36.412Z,15.93
2023-03-20T04:35:59.574Z,16.10
2023-03-20T04:36:22.374Z,16.50
2023-03-20T04:36:45.945Z,16.35
2023-03-20T04:37:08.713Z,15.75
2023-03-20T04:37:31.352Z,15.55
2023-03-20T04:37:54.091Z,16.00
2023-03-20T04:38:19.360Z,16.33
2023-03-20T04:38:43.649Z,16.05
2023-03-20T04:39:07.088Z,16.05
2023-03-20T04:39:29.784Z,16.25
2023-03-20T04:39:53.466Z,16.02
2023-03-20T04:40:16.580Z,16.63
2023-03-20T04:40:39.240Z,16.02
2023-03-20T04:41:02.099Z,16.17
2023-03-20T04:41:24.746Z,15.75
2023-03-20T04:41:48.021Z,15.98
2023-03-20T04:42:11.073Z,16.15
2023-03-20T04:42:33.812Z,16.27
2023-03-20T04:42:56.487Z,15.70
2023-03-20T04:43:22.692Z,15.98
2023-03-20T04:43:45.430Z,15.52
2023-03-20T04:44:08.174Z,15.23
2023-03-20T04:44:30.947Z,15.73
2023-03-20T04:44:53.932Z,15.60
2023-03-20T04:45:16.822Z,15.13
2023-03-20T04:45:39.594Z,15.07
2023-03-20T04:46:02.463Z,15.80
2023-03-20T04:46:25.455Z,15.65
2023-03-20T04:46:48.263Z,16.05
2023-03-20T04:47:10.973Z,15.85
2023-03-20T04:47:33.657Z,16.25
2023-03-20T04:47:56.461Z,15.90
2023-03-20T04:48:19.200Z,15.60
2023-03-20T04:48:42.002Z,15.48
2023-03-20T04:49:04.687Z,16.27
2023-03-20T04:49:27.538Z,16.15
2023-03-20T04:49:50.216Z,16.02
2023-03-20T04:50:16.178Z,15.57
2023-03-20T04:50:39.127Z,16.30
2023-03-20T04:51:01.942Z,16.05
2023-03-20T04:51:24.710Z,16.02
2023-03-20T04:51:47.447Z,15.60
2023-03-20T04:52:10.413Z,15.45
2023-03-20T04:52:33.131Z,15.82
2023-03-20T04:52:56.031Z,15.73
2023-03-20T04:53:18.893Z,15.27
2023-03-20T04:53:43.117Z,15.85
2023-03-20T04:54:05.862Z,16.05
2023-03-20T04:54:28.816Z,16.00
2023-03-20T04:54:51.536Z,15.88
2023-03-20T04:55:15.077Z,16.08
2023-03-20T04:55:37.932Z,15.25
2023-03-20T04:56:02.139Z,15.27
2023-03-20T04:56:25.224Z,16.00
2023-03-20T04:56:48.036Z,15.75
2023-03-20T04:57:10.807Z,15.55
2023-03-20T04:57:33.612Z,15.90
2023-03-20T04:57:56.668Z,15.70
2023-03-20T04:58:19.701Z,15.00
2023-03-20T04:58:42.482Z,15.52
2023-03-20T04:59:06.194Z,15.48
2023-03-20T04:59:28.849Z,16.08
2023-03-20T04:59:51.620Z,15.82
2023-03-20T05:00:17.523Z,15.50
2023-03-20T05:00:40.514Z,15.38
2023-03-20T05:01:03.290Z,15.10
2023-03-20T05:01:26.321Z,15.20
2023-03-20T05:01:49.179Z,15.65
2023-03-20T05:02:15.223Z,15.57
2023-03-20T05:02:37.942Z,16.27
2023-03-20T05:03:01.637Z,16.42
2023-03-20T05:03:24.366Z,16.08
2023-03-20T05:03:47.463Z,16.45
2023-03-20T05:04:10.472Z,16.63
2023-03-20T05:04:33.254Z,15.98
2023-03-20T05:04:56.164Z,16.20
2023-03-20T05:05:21.343Z,15.82
2023-03-20T05:05:44.188Z,16.35
2023-03-20T05:06:07.618Z,16.05
2023-03-20T05:06:31.857Z,15.98
2023-03-20T05:06:54.574Z,15.90
2023-03-20T05:07:17.756Z,16.48
2023-03-20T05:07:40.423Z,15.90
2023-03-20T05:08:03.150Z,16.25
2023-03-20T05:08:26.092Z,16.38
2023-03-20T05:08:50.397Z,16.30
2023-03-20T05:09:13.130Z,16.75
2023-03-20T05:09:35.944Z,16.60
2023-03-20T05:09:58.608Z,16.70
2023-03-20T05:10:21.440Z,16.35
2023-03-20T05:10:44.299Z,16.45
2023-03-20T05:11:08.372Z,16.27
2023-03-20T05:11:31.321Z,15.93
2023-03-20T05:11:54.023Z,15.80
2023-03-20T05:12:19.597Z,16.05
2023-03-20T05:12:42.253Z,16.00
2023-03-20T05:13:04.979Z,16.00
2023-03-20T05:13:27.764Z,16.02
2023-03-20T05:13:50.525Z,15.55
2023-03-20T05:14:13.293Z,15.55
2023-03-20T05:14:36.340Z,16.25
2023-03-20T05:14:59.054Z,16.35
2023-03-20T05:15:21.835Z,16.38
2023-03-20T05:15:44.556Z,15.30
2023-03-20T05:16:08.140Z,16.38
2023-03-20T05:16:32.087Z,15.95
2023-03-20T05:16:54.985Z,16.10
2023-03-20T05:17:19.685Z,16.10
2023-03-20T05:17:42.356Z,15.48
2023-03-20T05:18:05.225Z,15.57
2023-03-20T05:18:28.017Z,15.85
2023-03-20T05:18:51.061Z,16.17
2023-03-20T05:19:13.771Z,16.25
2023-03-20T05:19:37.169Z,15.80
2023-03-20T05:20:00.225Z,16.67
2023-03-20T05:20:23.039Z,17.17
2023-03-20T05:20:45.800Z,17.27
2023-03-20T05:21:08.665Z,17.83
2023-03-20T05:21:31.398Z,17.60
2023-03-20T05:21:54.100Z,17.73
2023-03-20T05:22:16.878Z,17.08